South Sound, Washington
Current Conditions -  °F | °C
As of 8:27 PM on Tuesday 27 Jan 2015 (Local Time) from KOLM Reporting Station
Overcast Overcast  
Wind Chill: 46°   Ceiling: 3500
Heat Index: 48°   Visibility: 10mi
Dew Point: 44°   Wind: 5mph
Humidity: 86%   Direction: 210°SSW
Pressure: 30.21"   Gusts: NA
Location:  46.9755°N, 122.872°W
Report Text: KOLM 280427Z AUTO 21004KT 10SM FEW022 SCT030 OVC035 09/07 A3021 RMK AO2 T00890067
Loading
Personal Weather Stations






























Interactive Weather Map New forecast layout! Learn more

10-Day Weather Forecast

Advertisements
Track Severe Weather on mobile